createdAt,value
2019-03-19T00:03:38.287Z,10.10
2019-03-19T00:08:40.451Z,8.97
2019-03-19T00:13:42.664Z,10.83
2019-03-19T00:18:44.865Z,13.07
2019-03-19T00:23:47.023Z,9.20
2019-03-19T00:28:49.205Z,11.63
2019-03-19T00:33:51.386Z,11.37
2019-03-19T00:38:53.572Z,15.40
2019-03-19T00:43:55.757Z,11.93
2019-03-19T00:48:57.937Z,9.47
2019-03-19T00:54:00.121Z,11.70
2019-03-19T00:59:02.295Z,10.23
2019-03-19T01:04:04.482Z,11.00
2019-03-19T01:09:06.815Z,10.37
2019-03-19T01:14:09.283Z,14.90
2019-03-19T01:19:11.502Z,11.60
2019-03-19T01:24:13.731Z,12.27
2019-03-19T01:29:15.885Z,9.47
2019-03-19T01:34:18.059Z,10.20
2019-03-19T01:39:20.243Z,12.73
2019-03-19T01:44:22.420Z,10.65
2019-03-19T01:49:24.593Z,10.00
2019-03-19T01:54:26.836Z,10.03
2019-03-19T01:59:29.079Z,12.97
2019-03-19T02:04:31.279Z,19.40
2019-03-19T02:09:33.488Z,16.73
2019-03-19T02:14:35.977Z,14.90
2019-03-19T02:19:38.178Z,13.50
2019-03-19T02:24:40.338Z,9.60
2019-03-19T02:29:42.535Z,9.63
2019-03-19T02:34:44.714Z,7.97
2019-03-19T02:39:46.905Z,12.28
2019-03-19T02:44:49.110Z,7.93
2019-03-19T02:49:51.271Z,10.20
2019-03-19T02:54:53.464Z,9.80
2019-03-19T02:59:55.709Z,7.60
2019-03-19T03:04:57.891Z,11.03
2019-03-19T03:10:00.444Z,11.83
2019-03-19T03:15:02.723Z,16.10
2019-03-19T03:20:05.761Z,11.93
2019-03-19T03:25:08.894Z,7.97
2019-03-19T03:30:13.091Z,10.73
2019-03-19T03:35:15.337Z,7.63
2019-03-19T03:40:17.951Z,7.60
2019-03-19T03:45:20.263Z,9.13
2019-03-19T03:50:22.456Z,8.37
2019-03-19T03:55:24.701Z,7.37
2019-03-19T04:00:26.866Z,7.80
2019-03-19T04:05:29.039Z,7.90
2019-03-19T04:10:31.245Z,11.90
2019-03-19T04:15:34.376Z,9.70
2019-03-19T04:20:36.584Z,7.53
2019-03-19T04:25:38.773Z,10.37
2019-03-19T04:30:40.999Z,6.80
2019-03-19T04:35:43.211Z,6.97
2019-03-19T04:40:45.433Z,9.23
2019-03-19T04:45:47.590Z,10.13
2019-03-19T04:50:49.778Z,7.62
2019-03-19T04:55:51.988Z,8.47
2019-03-19T05:00:54.295Z,8.20
2019-03-19T05:05:56.569Z,9.13
2019-03-19T05:10:59.031Z,8.07
2019-03-19T05:16:01.264Z,8.83
2019-03-19T05:21:03.519Z,8.80
2019-03-19T05:26:05.711Z,8.77
2019-03-19T05:31:08.015Z,10.95
2019-03-19T05:36:10.185Z,10.27
2019-03-19T05:41:12.415Z,11.90
2019-03-19T05:46:14.759Z,7.93
2019-03-19T05:51:16.915Z,6.63
2019-03-19T05:56:19.100Z,21.73
2019-03-19T06:01:21.320Z,8.10
2019-03-19T06:06:23.585Z,9.03
2019-03-19T06:11:25.812Z,8.67
2019-03-19T06:16:28.505Z,10.00
2019-03-19T06:21:30.746Z,7.90
2019-03-19T06:26:32.945Z,11.10
2019-03-19T06:31:35.239Z,10.97
2019-03-19T06:36:37.559Z,10.07
2019-03-19T06:41:39.788Z,9.27
2019-03-19T06:46:41.969Z,7.23
2019-03-19T06:51:44.171Z,10.40
2019-03-19T06:56:46.394Z,11.80
2019-03-19T07:01:48.560Z,12.90
2019-03-19T07:06:50.791Z,11.90
2019-03-19T07:11:53.075Z,11.00
2019-03-19T07:16:55.244Z,8.40
2019-03-19T07:21:57.495Z,9.33
2019-03-19T07:26:59.704Z,12.10
2019-03-19T07:32:01.939Z,10.95
2019-03-19T07:37:04.139Z,15.28
2019-03-19T07:42:06.614Z,8.77
2019-03-19T07:47:08.775Z,8.40
2019-03-19T07:52:11.008Z,8.23
2019-03-19T07:57:13.195Z,7.00
2019-03-19T08:02:15.609Z,7.63
2019-03-19T08:07:17.780Z,9.83
2019-03-19T08:12:19.974Z,6.73
2019-03-19T08:17:22.153Z,6.27
2019-03-19T08:22:24.583Z,11.67
2019-03-19T08:27:26.772Z,12.17
2019-03-19T08:32:28.965Z,8.68
2019-03-19T08:37:31.173Z,10.40
2019-03-19T08:42:33.396Z,10.08
2019-03-19T08:47:35.579Z,13.53
2019-03-19T08:52:38.636Z,10.18
2019-03-19T08:57:40.826Z,10.10
2019-03-19T09:02:43.004Z,12.33
2019-03-19T09:07:45.181Z,9.68
2019-03-19T09:12:48.609Z,13.03
2019-03-19T09:17:51.233Z,12.82
2019-03-19T09:22:53.455Z,10.98
2019-03-19T09:27:55.776Z,10.98
2019-03-19T09:32:58.230Z,13.47
2019-03-19T09:38:00.416Z,15.77
2019-03-19T09:43:02.697Z,15.67
2019-03-19T09:48:04.906Z,18.23
2019-03-19T09:53:07.089Z,13.00
2019-03-19T09:58:09.340Z,13.77
2019-03-19T10:03:11.524Z,19.70
2019-03-19T10:08:13.709Z,21.63
2019-03-19T10:13:15.895Z,13.30
2019-03-19T10:18:18.080Z,15.20
2019-03-19T10:23:20.293Z,17.13
2019-03-19T10:28:22.465Z,18.50
2019-03-19T10:33:24.734Z,11.75
2019-03-19T10:38:26.945Z,10.50
2019-03-19T10:43:29.116Z,10.17
2019-03-19T10:48:31.319Z,10.37
2019-03-19T10:53:33.525Z,11.87
2019-03-19T10:58:35.688Z,11.03
2019-03-19T11:03:37.904Z,13.20
2019-03-19T11:08:40.191Z,20.63
2019-03-19T11:13:42.382Z,11.13
2019-03-19T11:18:44.638Z,11.80
2019-03-19T11:23:47.089Z,12.57
2019-03-19T11:28:49.328Z,12.60
2019-03-19T11:33:51.516Z,14.10
2019-03-19T11:38:54.001Z,11.20
2019-03-19T11:43:56.557Z,9.33
2019-03-19T11:48:58.761Z,7.27
2019-03-19T11:54:00.999Z,7.40
2019-03-19T11:59:03.241Z,10.60
2019-03-19T12:04:05.783Z,7.20
2019-03-19T12:09:07.972Z,9.17
2019-03-19T12:14:10.204Z,7.47
2019-03-19T12:19:12.363Z,9.67
2019-03-19T12:24:14.549Z,11.70
2019-03-19T12:29:16.773Z,17.20
2019-03-19T12:34:19.049Z,12.53
2019-03-19T12:39:21.251Z,8.43
2019-03-19T12:44:23.431Z,7.60
2019-03-19T12:49:25.638Z,9.00
2019-03-19T12:54:27.901Z,8.27
2019-03-19T12:59:30.116Z,12.17
2019-03-19T13:04:32.306Z,8.67
2019-03-19T13:09:34.496Z,9.37
2019-03-19T13:14:36.699Z,9.50
2019-03-19T13:19:38.863Z,12.53
2019-03-19T13:24:41.380Z,9.47
2019-03-19T13:29:43.652Z,10.83
2019-03-19T13:34:46.149Z,8.77
2019-03-19T13:39:48.673Z,9.50
2019-03-19T13:44:50.873Z,11.00
2019-03-19T13:49:53.065Z,12.70
2019-03-19T13:54:55.247Z,7.67
2019-03-19T13:59:57.455Z,7.70
2019-03-19T14:04:59.652Z,9.10
2019-03-19T14:10:01.850Z,9.10
2019-03-19T14:15:05.735Z,10.40
2019-03-19T14:20:09.458Z,9.13
2019-03-19T14:25:12.225Z,8.77
2019-03-19T14:30:15.213Z,12.33
2019-03-19T14:35:17.589Z,14.40
2019-03-19T14:40:20.415Z,11.03
2019-03-19T14:45:22.923Z,14.17
2019-03-19T14:50:25.690Z,15.93
2019-03-19T14:55:27.861Z,11.93
2019-03-19T15:00:30.448Z,12.17
2019-03-19T15:05:32.657Z,20.97
2019-03-19T15:10:34.830Z,9.57
2019-03-19T15:15:37.048Z,7.63
2019-03-19T15:20:39.365Z,14.87
2019-03-19T15:25:42.183Z,12.57
2019-03-19T15:30:44.369Z,13.60
2019-03-19T15:35:46.608Z,8.73
2019-03-19T15:40:48.821Z,17.57
2019-03-19T15:45:50.995Z,10.77
2019-03-19T15:50:53.305Z,16.43
2019-03-19T15:55:55.450Z,12.30
2019-03-19T16:00:57.645Z,7.93
2019-03-19T16:05:59.900Z,11.70
2019-03-19T16:11:02.184Z,10.70
2019-03-19T16:16:04.393Z,9.73
2019-03-19T16:21:06.646Z,12.93
2019-03-19T16:26:08.846Z,9.23
2019-03-19T16:31:12.020Z,6.53
2019-03-19T16:36:14.207Z,8.17
2019-03-19T16:41:16.437Z,8.57
2019-03-19T16:46:18.668Z,8.17
2019-03-19T16:51:21.408Z,13.13
2019-03-19T16:56:23.642Z,8.90
2019-03-19T17:01:25.870Z,9.90
2019-03-19T17:06:28.438Z,17.40
2019-03-19T17:11:30.772Z,15.37
2019-03-19T17:16:32.979Z,9.57
2019-03-19T17:21:35.313Z,11.47
2019-03-19T17:26:37.560Z,17.52
2019-03-19T17:31:39.833Z,14.93
2019-03-19T17:36:42.044Z,13.45
2019-03-19T17:41:44.559Z,12.33
2019-03-19T17:46:46.834Z,20.97
2019-03-19T17:51:49.047Z,13.53
2019-03-19T17:56:51.277Z,18.50
2019-03-19T18:01:53.620Z,14.33
2019-03-19T18:06:56.039Z,22.10
2019-03-19T18:11:58.291Z,20.17
2019-03-19T18:17:00.568Z,21.83
2019-03-19T18:22:02.946Z,17.83
2019-03-19T18:27:05.099Z,10.67
2019-03-19T18:32:07.297Z,10.00
2019-03-19T18:37:09.652Z,12.03
2019-03-19T18:42:11.835Z,17.10
2019-03-19T18:47:14.189Z,15.17
2019-03-19T18:52:16.483Z,13.17
2019-03-19T18:57:18.874Z,16.23
2019-03-19T19:02:21.188Z,12.40
2019-03-19T19:07:23.460Z,16.30
2019-03-19T19:12:25.729Z,17.53
2019-03-19T19:17:27.949Z,24.43
2019-03-19T19:22:30.162Z,29.67
2019-03-19T19:27:32.377Z,19.70
2019-03-19T19:32:34.614Z,11.57
2019-03-19T19:37:36.958Z,10.60
2019-03-19T19:42:39.244Z,15.97
2019-03-19T19:47:41.458Z,14.00
2019-03-19T19:52:43.784Z,31.57
2019-03-19T19:57:46.027Z,32.20
2019-03-19T20:02:49.102Z,18.27
2019-03-19T20:07:51.303Z,17.20
2019-03-19T20:12:53.519Z,19.73
2019-03-19T20:17:55.723Z,23.83
2019-03-19T20:22:57.925Z,19.27
2019-03-19T20:28:00.197Z,19.97
2019-03-19T20:33:02.449Z,27.23
2019-03-19T20:38:04.734Z,17.37
2019-03-19T20:43:07.224Z,18.97
2019-03-19T20:48:10.093Z,21.40
2019-03-19T20:53:12.406Z,16.93
2019-03-19T20:58:14.756Z,20.83
2019-03-19T21:03:17.012Z,19.23
2019-03-19T21:08:19.205Z,24.47
2019-03-19T21:13:21.494Z,20.07
2019-03-19T21:18:24.087Z,23.40
2019-03-19T21:23:26.368Z,19.92
2019-03-19T21:28:28.755Z,18.60
2019-03-19T21:33:31.033Z,13.40
2019-03-19T21:38:33.249Z,16.17
2019-03-19T21:43:35.581Z,19.37
2019-03-19T21:48:37.847Z,24.37
2019-03-19T21:53:40.201Z,28.30
2019-03-19T21:58:42.402Z,22.00
2019-03-19T22:03:44.894Z,26.93
2019-03-19T22:08:47.217Z,21.03
2019-03-19T22:13:49.477Z,20.83
2019-03-19T22:18:51.975Z,16.47
2019-03-19T22:23:54.190Z,25.40
2019-03-19T22:28:56.549Z,25.53
2019-03-19T22:33:58.888Z,21.43
2019-03-19T22:39:01.147Z,24.30
2019-03-19T22:44:03.359Z,30.43
2019-03-19T22:49:05.575Z,34.27
2019-03-19T22:54:08.131Z,27.60
2019-03-19T22:59:10.364Z,20.60
2019-03-19T23:04:12.619Z,14.90
2019-03-19T23:09:14.836Z,20.63
2019-03-19T23:14:17.039Z,19.67
2019-03-19T23:19:19.257Z,19.43
2019-03-19T23:24:21.490Z,19.33
2019-03-19T23:29:23.653Z,20.13
2019-03-19T23:34:25.851Z,19.63
2019-03-19T23:39:28.059Z,20.30
2019-03-19T23:44:30.263Z,16.57
2019-03-19T23:49:32.539Z,14.93
2019-03-19T23:54:34.727Z,13.70
2019-03-19T23:59:37.173Z,15.93
